Time;durP1;ratioP1;P1;durP2;ratioP2;P2;SDS_P1;SDS_P2;PMS_P1;PMS_P2;Temp;Humidity;BMP_temperature;BMP_pressure;BME280_temperature;BME280_humidity;BME280_pressure;Samples;Min_cycle;Max_cycle;Signal;HPM_P1;HPM_P2
2023/12/20 00:02:11;;;;;;;2.10;2.00;;;;;;;;;;4889593;29;20212;-61
2023/12/20 00:04:38;;;;;;;2.70;2.50;;;;;;;;;;4890022;29;20735;-60
2023/12/20 00:07:04;;;;;;;2.50;2.40;;;;;;;;;;4879069;29;20573;-61
2023/12/20 00:09:31;;;;;;;2.67;2.47;;;;;;;;;;4885097;29;20261;-61
2023/12/20 00:11:58;;;;;;;2.20;2.10;;;;;;;;;;4885227;29;20256;-61
2023/12/20 00:14:25;;;;;;;2.03;1.93;;;;;;;;;;4885648;29;20493;-58
2023/12/20 00:16:52;;;;;;;2.80;2.07;;;;;;;;;;4886441;29;20225;-58
2023/12/20 00:19:20;;;;;;;1.80;1.70;;;;;;;;;;4882080;29;20224;-58
2023/12/20 00:21:47;;;;;;;1.50;1.50;;;;;;;;;;4886107;29;20260;-58
2023/12/20 00:24:14;;;;;;;2.00;1.90;;;;;;;;;;4880542;29;20209;-59
2023/12/20 00:26:42;;;;;;;1.80;1.80;;;;;;;;;;4883630;29;20214;-58
2023/12/20 00:29:09;;;;;;;1.80;1.80;;;;;;;;;;4881435;29;20301;-59
2023/12/20 00:31:36;;;;;;;1.47;1.37;;;;;;;;;;4880562;29;20216;-59
2023/12/20 00:34:03;;;;;;;2.00;1.90;;;;;;;;;;4881575;29;20201;-59
2023/12/20 00:36:31;;;;;;;2.00;1.83;;;;;;;;;;4885996;29;20264;-58
2023/12/20 00:38:58;;;;;;;1.33;1.33;;;;;;;;;;4881156;29;20209;-59
2023/12/20 00:41:25;;;;;;;1.57;1.57;;;;;;;;;;4885547;29;20225;-59
2023/12/20 00:43:53;;;;;;;2.80;1.60;;;;;;;;;;4882242;29;20487;-59
2023/12/20 00:46:20;;;;;;;1.43;1.43;;;;;;;;;;4881174;29;20339;-59
2023/12/20 00:48:47;;;;;;;1.80;1.70;;;;;;;;;;4885480;29;20209;-59
2023/12/20 00:51:14;;;;;;;1.40;1.40;;;;;;;;;;4892867;29;20215;-59
2023/12/20 00:53:43;;;;;;;1.57;1.57;;;;;;;;;;4892680;29;20221;-59
2023/12/20 00:56:10;;;;;;;1.60;1.50;;;;;;;;;;4892937;29;20221;-59
2023/12/20 00:58:37;;;;;;;1.57;1.57;;;;;;;;;;4890253;29;20205;-59
2023/12/20 01:01:04;;;;;;;1.40;1.33;;;;;;;;;;4891853;29;20216;-59
2023/12/20 01:03:31;;;;;;;1.10;1.10;;;;;;;;;;4892398;29;20217;-59
2023/12/20 01:05:58;;;;;;;2.43;1.37;;;;;;;;;;4893466;29;20239;-59
2023/12/20 01:08:25;;;;;;;2.20;1.90;;;;;;;;;;4892280;29;20201;-59
2023/12/20 01:10:53;;;;;;;1.50;1.40;;;;;;;;;;4892378;29;20223;-58
2023/12/20 01:13:20;;;;;;;1.73;1.70;;;;;;;;;;4892397;29;20231;-58
2023/12/20 01:15:48;;;;;;;3.77;2.27;;;;;;;;;;4892850;29;20217;-59
2023/12/20 01:18:15;;;;;;;1.50;1.50;;;;;;;;;;4892036;29;20272;-58
2023/12/20 01:20:42;;;;;;;1.30;1.30;;;;;;;;;;4891631;29;20205;-58
2023/12/20 01:23:09;;;;;;;1.57;1.47;;;;;;;;;;4893029;29;20296;-58
2023/12/20 01:25:36;;;;;;;1.73;1.63;;;;;;;;;;4892715;29;20221;-59
2023/12/20 01:28:05;;;;;;;1.30;1.30;;;;;;;;;;4892090;29;20208;-58
2023/12/20 01:30:32;;;;;;;1.40;1.40;;;;;;;;;;4873956;29;20210;-59
2023/12/20 01:33:01;;;;;;;1.53;1.43;;;;;;;;;;4890970;29;20216;-58
2023/12/20 01:35:28;;;;;;;1.33;1.13;;;;;;;;;;4892157;29;20213;-59
2023/12/20 01:37:56;;;;;;;1.20;1.20;;;;;;;;;;4891691;29;20507;-58
2023/12/20 01:40:23;;;;;;;1.40;1.33;;;;;;;;;;4892123;29;20205;-59
2023/12/20 01:42:59;;;;;;;0.87;0.87;;;;;;;;;;4892806;29;20723;-59
2023/12/20 01:45:27;;;;;;;1.40;1.40;;;;;;;;;;4889981;29;20368;-59
2023/12/20 01:47:54;;;;;;;1.00;1.00;;;;;;;;;;4891732;29;20212;-59
2023/12/20 01:50:22;;;;;;;1.27;1.27;;;;;;;;;;4892485;29;20228;-59
2023/12/20 01:52:51;;;;;;;1.13;1.13;;;;;;;;;;4892316;29;20209;-58
2023/12/20 01:55:19;;;;;;;0.93;0.93;;;;;;;;;;4892571;29;20208;-58
2023/12/20 01:57:47;;;;;;;1.40;1.40;;;;;;;;;;4891574;29;20249;-59
2023/12/20 02:00:14;;;;;;;1.03;1.03;;;;;;;;;;4891702;29;20205;-59
2023/12/20 02:02:43;;;;;;;1.27;1.17;;;;;;;;;;4891903;29;20245;-59
2023/12/20 02:05:10;;;;;;;0.73;0.73;;;;;;;;;;4891693;29;20668;-59
2023/12/20 02:07:37;;;;;;;1.07;1.07;;;;;;;;;;4888714;29;20213;-60
2023/12/20 02:10:05;;;;;;;1.00;1.00;;;;;;;;;;4883336;29;20209;-59
2023/12/20 02:12:32;;;;;;;2.70;1.00;;;;;;;;;;4891643;29;20260;-60
2023/12/20 02:14:59;;;;;;;1.20;1.10;;;;;;;;;;4892073;29;20214;-59
2023/12/20 02:17:27;;;;;;;1.30;1.30;;;;;;;;;;4890904;29;20241;-59
2023/12/20 02:19:55;;;;;;;1.33;1.17;;;;;;;;;;4891569;29;20213;-59
2023/12/20 02:22:23;;;;;;;1.10;1.10;;;;;;;;;;4890933;29;20245;-59
2023/12/20 02:24:50;;;;;;;1.27;1.27;;;;;;;;;;4891653;29;20330;-58
2023/12/20 02:27:19;;;;;;;1.13;1.13;;;;;;;;;;4890957;29;20340;-59
2023/12/20 02:29:48;;;;;;;1.10;1.10;;;;;;;;;;4891243;29;20209;-59
2023/12/20 02:32:15;;;;;;;1.30;1.20;;;;;;;;;;4890904;29;21280;-58
2023/12/20 02:34:42;;;;;;;1.20;1.20;;;;;;;;;;4891692;29;20204;-59
2023/12/20 02:37:09;;;;;;;1.40;1.30;;;;;;;;;;4890848;29;20244;-59
2023/12/20 02:39:37;;;;;;;1.30;1.20;;;;;;;;;;4890412;29;20695;-59
2023/12/20 02:42:05;;;;;;;1.03;1.03;;;;;;;;;;4890695;29;20216;-59
2023/12/20 02:44:32;;;;;;;1.07;1.07;;;;;;;;;;4890701;29;20215;-59
2023/12/20 02:46:59;;;;;;;1.20;1.03;;;;;;;;;;4889986;29;20205;-59
2023/12/20 02:49:26;;;;;;;2.83;1.00;;;;;;;;;;4891007;29;20847;-60
2023/12/20 02:51:53;;;;;;;1.07;1.07;;;;;;;;;;4891647;29;20220;-59
2023/12/20 02:54:20;;;;;;;1.10;1.10;;;;;;;;;;4890742;29;20209;-59
2023/12/20 02:56:48;;;;;;;0.87;0.87;;;;;;;;;;4890802;29;20209;-59
2023/12/20 02:59:15;;;;;;;1.00;1.00;;;;;;;;;;4890537;29;20220;-59
2023/12/20 03:01:42;;;;;;;0.80;0.80;;;;;;;;;;4890110;29;20216;-59
2023/12/20 03:04:09;;;;;;;1.10;1.10;;;;;;;;;;4890537;29;20745;-59
2023/12/20 03:06:36;;;;;;;1.27;1.27;;;;;;;;;;4891195;29;20209;-60
2023/12/20 03:09:04;;;;;;;1.90;1.27;;;;;;;;;;4890071;29;20224;-59
2023/12/20 03:11:31;;;;;;;1.20;1.20;;;;;;;;;;4890734;29;20707;-59
2023/12/20 03:13:59;;;;;;;1.00;1.00;;;;;;;;;;4890652;29;20212;-59
2023/12/20 03:16:33;;;;;;;0.90;0.90;;;;;;;;;;4890629;29;20684;-59
2023/12/20 03:19:00;;;;;;;0.80;0.80;;;;;;;;;;4889982;29;20237;-59
2023/12/20 03:21:27;;;;;;;1.20;1.20;;;;;;;;;;4890540;29;20252;-59
2023/12/20 03:23:54;;;;;;;0.97;0.97;;;;;;;;;;4890371;29;20224;-60
2023/12/20 03:26:22;;;;;;;1.10;1.10;;;;;;;;;;4890885;29;20220;-60
2023/12/20 03:28:51;;;;;;;1.00;1.00;;;;;;;;;;4889842;29;20205;-59
2023/12/20 03:31:20;;;;;;;1.10;1.10;;;;;;;;;;4891109;29;20302;-60
2023/12/20 03:33:47;;;;;;;1.00;1.00;;;;;;;;;;4890690;29;20213;-60
2023/12/20 03:36:14;;;;;;;6.47;0.80;;;;;;;;;;4890446;29;20209;-59
2023/12/20 03:38:41;;;;;;;1.20;1.10;;;;;;;;;;4889641;29;20239;-59
2023/12/20 03:41:08;;;;;;;1.10;1.10;;;;;;;;;;4890066;29;20212;-60
2023/12/20 03:43:35;;;;;;;0.90;0.90;;;;;;;;;;4889610;29;20220;-59
2023/12/20 03:46:03;;;;;;;1.17;1.17;;;;;;;;;;4890999;29;20216;-60
2023/12/20 03:48:32;;;;;;;0.90;0.90;;;;;;;;;;4886407;29;20206;-59
2023/12/20 03:54:02;;;;;;;0.93;0.93;;;;;;;;;;4889878;29;20563;-59
2023/12/20 03:56:29;;;;;;;1.73;1.03;;;;;;;;;;4890136;29;20213;-60
2023/12/20 03:58:56;;;;;;;0.90;0.90;;;;;;;;;;4890307;29;20233;-60
2023/12/20 04:01:23;;;;;;;0.80;0.80;;;;;;;;;;4890589;29;20213;-60
2023/12/20 04:03:52;;;;;;;1.00;1.00;;;;;;;;;;4889612;29;20201;-60
2023/12/20 04:06:19;;;;;;;0.90;0.90;;;;;;;;;;4890172;29;20205;-60
2023/12/20 04:08:46;;;;;;;2.30;0.90;;;;;;;;;;4889699;29;20624;-60
2023/12/20 04:11:13;;;;;;;0.87;0.87;;;;;;;;;;4890163;29;20335;-60
2023/12/20 04:13:40;;;;;;;1.20;1.10;;;;;;;;;;4889974;29;20587;-59
2023/12/20 04:16:07;;;;;;;0.90;0.90;;;;;;;;;;4889898;29;20294;-60
2023/12/20 04:18:34;;;;;;;1.17;1.17;;;;;;;;;;4889550;29;20229;-60
2023/12/20 04:21:02;;;;;;;0.90;0.90;;;;;;;;;;4890104;29;20249;-60
2023/12/20 04:23:29;;;;;;;2.40;1.23;;;;;;;;;;4890135;29;20216;-60
2023/12/20 04:25:56;;;;;;;1.20;1.20;;;;;;;;;;4890051;29;20217;-59
2023/12/20 04:28:24;;;;;;;1.40;1.40;;;;;;;;;;4889840;29;20723;-59
2023/12/20 04:30:51;;;;;;;1.00;1.00;;;;;;;;;;4890066;29;20218;-59
2023/12/20 04:33:18;;;;;;;0.87;0.87;;;;;;;;;;4889327;29;20213;-60
2023/12/20 04:35:46;;;;;;;1.00;1.00;;;;;;;;;;4889890;29;20328;-60
2023/12/20 04:38:14;;;;;;;0.63;0.63;;;;;;;;;;4889056;29;20229;-60
2023/12/20 04:40:41;;;;;;;0.60;0.60;;;;;;;;;;4889671;29;20212;-60
2023/12/20 04:43:08;;;;;;;0.80;0.80;;;;;;;;;;4890313;29;20220;-60
2023/12/20 04:45:35;;;;;;;0.53;0.53;;;;;;;;;;4890248;29;20217;-60
2023/12/20 04:48:03;;;;;;;0.80;0.80;;;;;;;;;;4889430;29;20215;-60
2023/12/20 04:50:30;;;;;;;0.70;0.70;;;;;;;;;;4889573;29;20304;-60
2023/12/20 04:52:57;;;;;;;1.20;1.10;;;;;;;;;;4889699;29;20220;-60
2023/12/20 04:55:25;;;;;;;1.83;1.73;;;;;;;;;;4891109;29;20213;-60
2023/12/20 04:57:52;;;;;;;1.77;1.77;;;;;;;;;;4893379;29;20236;-60
2023/12/20 05:00:19;;;;;;;1.50;1.50;;;;;;;;;;4893177;29;20209;-60
2023/12/20 05:02:46;;;;;;;1.10;1.10;;;;;;;;;;4892447;29;20212;-60
2023/12/20 05:05:15;;;;;;;0.80;0.80;;;;;;;;;;4891549;29;20216;-60
2023/12/20 05:07:42;;;;;;;1.60;1.03;;;;;;;;;;4891434;29;20380;-60
2023/12/20 05:10:09;;;;;;;2.13;1.00;;;;;;;;;;4877923;29;20216;-60
2023/12/20 05:12:37;;;;;;;1.43;0.90;;;;;;;;;;4893485;29;20225;-60
2023/12/20 05:15:05;;;;;;;3.70;0.70;;;;;;;;;;4893482;29;20212;-59
2023/12/20 05:17:32;;;;;;;1.60;1.00;;;;;;;;;;4886284;29;20585;-59
2023/12/20 05:19:59;;;;;;;2.57;0.87;;;;;;;;;;4892365;29;20213;-60
2023/12/20 05:22:27;;;;;;;0.70;0.70;;;;;;;;;;4892656;29;20304;-60
2023/12/20 05:24:54;;;;;;;0.90;0.90;;;;;;;;;;4892331;29;20209;-60
2023/12/20 05:27:21;;;;;;;3.03;1.00;;;;;;;;;;4892219;29;20695;-60
2023/12/20 05:29:50;;;;;;;1.67;1.23;;;;;;;;;;4892176;29;20205;-60
2023/12/20 05:32:17;;;;;;;5.37;2.53;;;;;;;;;;4892299;29;20652;-60
2023/12/20 05:34:44;;;;;;;3.63;2.10;;;;;;;;;;4892020;29;20562;-60
2023/12/20 05:37:11;;;;;;;1.37;1.37;;;;;;;;;;4890628;29;20209;-60
2023/12/20 05:39:38;;;;;;;2.20;1.00;;;;;;;;;;4892238;29;20228;-60
2023/12/20 05:42:05;;;;;;;3.43;1.27;;;;;;;;;;4891946;29;20209;-60
2023/12/20 05:44:32;;;;;;;1.07;1.00;;;;;;;;;;4892382;29;20221;-60
2023/12/20 05:47:01;;;;;;;0.77;0.70;;;;;;;;;;4890791;29;20688;-60
2023/12/20 05:49:28;;;;;;;0.97;0.80;;;;;;;;;;4892118;29;20209;-60
2023/12/20 05:51:55;;;;;;;0.80;0.67;;;;;;;;;;4892057;29;20209;-60
2023/12/20 05:54:22;;;;;;;6.30;0.77;;;;;;;;;;4889061;29;20291;-60
2023/12/20 05:56:50;;;;;;;7.70;0.80;;;;;;;;;;4891443;29;20719;-60
2023/12/20 05:59:17;;;;;;;2.57;0.70;;;;;;;;;;4889767;29;20233;-60
2023/12/20 06:01:44;;;;;;;0.50;0.50;;;;;;;;;;4891673;29;20201;-60
2023/12/20 06:04:13;;;;;;;1.67;0.90;;;;;;;;;;4881529;29;20217;-60
2023/12/20 06:06:42;;;;;;;6.30;2.57;;;;;;;;;;4891836;29;20209;-60
2023/12/20 06:09:09;;;;;;;4.70;1.00;;;;;;;;;;4891820;29;20265;-61
2023/12/20 06:11:36;;;;;;;1.67;0.87;;;;;;;;;;4891833;29;20228;-60
2023/12/20 06:14:03;;;;;;;2.13;1.00;;;;;;;;;;4891556;29;20265;-60
2023/12/20 06:16:30;;;;;;;0.87;0.53;;;;;;;;;;4892057;29;20220;-60
2023/12/20 06:18:57;;;;;;;2.90;0.77;;;;;;;;;;4884273;29;20238;-61
2023/12/20 06:21:25;;;;;;;0.50;0.50;;;;;;;;;;4884980;29;20236;-60
2023/12/20 06:23:52;;;;;;;1.23;0.77;;;;;;;;;;4891276;29;20209;-61
2023/12/20 06:26:19;;;;;;;4.57;0.70;;;;;;;;;;4891165;29;20205;-61
2023/12/20 06:28:46;;;;;;;1.17;0.77;;;;;;;;;;4890218;29;20216;-60
2023/12/20 06:31:13;;;;;;;1.50;0.70;;;;;;;;;;4882412;29;20217;-61
2023/12/20 06:33:42;;;;;;;2.63;0.90;;;;;;;;;;4887759;29;20672;-60
2023/12/20 06:36:09;;;;;;;0.97;0.90;;;;;;;;;;4871199;29;20304;-60
2023/12/20 06:38:37;;;;;;;2.90;0.60;;;;;;;;;;4886255;29;20699;-61
2023/12/20 06:41:04;;;;;;;1.10;1.00;;;;;;;;;;4881085;29;20230;-60
2023/12/20 06:43:32;;;;;;;0.90;0.90;;;;;;;;;;4876796;29;20239;-60
2023/12/20 06:45:59;;;;;;;1.97;0.90;;;;;;;;;;4872417;29;20218;-60
2023/12/20 06:48:26;;;;;;;0.87;0.87;;;;;;;;;;4872402;29;20218;-60
2023/12/20 06:50:53;;;;;;;1.57;1.07;;;;;;;;;;4877692;29;20213;-60
2023/12/20 06:53:20;;;;;;;3.47;1.20;;;;;;;;;;4889480;29;20211;-59
2023/12/20 06:55:48;;;;;;;5.20;1.20;;;;;;;;;;4891087;29;20231;-60
2023/12/20 06:58:16;;;;;;;0.70;0.70;;;;;;;;;;4890795;29;20216;-61
2023/12/20 07:00:43;;;;;;;1.90;1.00;;;;;;;;;;4891216;29;20217;-60
2023/12/20 07:03:10;;;;;;;1.10;0.93;;;;;;;;;;4890130;29;20221;-61
2023/12/20 07:05:37;;;;;;;0.83;0.83;;;;;;;;;;4891301;29;20207;-61
2023/12/20 07:08:05;;;;;;;4.13;1.13;;;;;;;;;;4890993;29;20213;-61
2023/12/20 07:10:32;;;;;;;3.40;0.80;;;;;;;;;;4890582;29;20251;-61
2023/12/20 07:13:00;;;;;;;1.20;1.00;;;;;;;;;;4890657;29;20225;-61
2023/12/20 07:15:29;;;;;;;1.17;0.90;;;;;;;;;;4890835;29;20222;-61
2023/12/20 07:17:56;;;;;;;0.77;0.77;;;;;;;;;;4872027;29;20655;-60
2023/12/20 07:20:23;;;;;;;1.67;1.20;;;;;;;;;;4872271;29;20242;-61
2023/12/20 07:22:50;;;;;;;1.67;0.97;;;;;;;;;;4864798;29;20205;-61
2023/12/20 07:25:17;;;;;;;0.90;0.90;;;;;;;;;;4890844;29;20567;-60
2023/12/20 07:27:44;;;;;;;1.90;1.40;;;;;;;;;;4883755;29;20204;-61
2023/12/20 07:30:13;;;;;;;1.20;1.10;;;;;;;;;;4871807;29;20219;-60
2023/12/20 07:32:40;;;;;;;2.60;1.00;;;;;;;;;;4882137;29;20218;-61
2023/12/20 07:35:08;;;;;;;0.80;0.80;;;;;;;;;;4871957;29;20223;-61
2023/12/20 07:37:35;;;;;;;1.53;0.90;;;;;;;;;;4872048;29;20227;-61
2023/12/20 07:40:03;;;;;;;5.47;1.00;;;;;;;;;;4872239;29;20333;-61
2023/12/20 07:42:30;;;;;;;0.80;0.80;;;;;;;;;;4877362;29;20403;-61
2023/12/20 07:44:57;;;;;;;0.60;0.60;;;;;;;;;;4890824;29;20217;-61
2023/12/20 07:47:25;;;;;;;1.70;0.90;;;;;;;;;;4890623;29;20582;-61
2023/12/20 07:49:52;;;;;;;0.90;0.90;;;;;;;;;;4890106;29;20216;-61
2023/12/20 07:52:19;;;;;;;0.60;0.60;;;;;;;;;;4884741;29;20217;-61
2023/12/20 07:54:46;;;;;;;3.50;0.80;;;;;;;;;;4871838;29;20215;-61
2023/12/20 07:57:13;;;;;;;1.80;0.80;;;;;;;;;;4888331;29;20224;-61
2023/12/20 07:59:40;;;;;;;3.73;1.00;;;;;;;;;;4873545;29;20237;-61
2023/12/20 08:02:07;;;;;;;2.87;1.07;;;;;;;;;;4875137;29;20262;-62
2023/12/20 08:04:36;;;;;;;1.63;0.90;;;;;;;;;;4889453;29;20584;-61
2023/12/20 08:07:03;;;;;;;2.10;1.30;;;;;;;;;;4887949;29;20265;-61
2023/12/20 08:09:31;;;;;;;4.33;1.07;;;;;;;;;;4871310;29;20252;-61
2023/12/20 08:11:59;;;;;;;2.07;1.10;;;;;;;;;;4874124;29;20216;-61
2023/12/20 08:14:26;;;;;;;1.57;1.47;;;;;;;;;;4890191;29;20244;-62
2023/12/20 08:16:53;;;;;;;7.57;1.20;;;;;;;;;;4888990;29;20229;-61
2023/12/20 08:19:20;;;;;;;2.20;1.13;;;;;;;;;;4871483;29;20249;-61
2023/12/20 08:21:49;;;;;;;2.40;1.30;;;;;;;;;;4889661;29;20241;-61
2023/12/20 08:24:16;;;;;;;1.20;1.10;;;;;;;;;;4890022;29;20221;-61
2023/12/20 08:26:43;;;;;;;1.50;1.40;;;;;;;;;;4888096;29;20236;-60
2023/12/20 08:29:10;;;;;;;3.30;1.57;;;;;;;;;;4891201;29;20221;-60
2023/12/20 08:31:37;;;;;;;2.13;1.43;;;;;;;;;;4893780;29;20221;-71
2023/12/20 08:34:04;;;;;;;2.60;1.90;;;;;;;;;;4893919;29;20676;-60
2023/12/20 08:36:31;;;;;;;2.20;1.57;;;;;;;;;;4893264;29;20217;-60
2023/12/20 08:39:00;;;;;;;7.13;1.13;;;;;;;;;;4893689;29;20240;-60
2023/12/20 08:41:27;;;;;;;2.63;1.33;;;;;;;;;;4893261;29;20220;-61
2023/12/20 08:43:54;;;;;;;1.77;1.17;;;;;;;;;;4893074;29;20205;-61
2023/12/20 08:46:21;;;;;;;4.43;1.70;;;;;;;;;;4893595;29;20209;-61
2023/12/20 08:48:48;;;;;;;2.30;1.40;;;;;;;;;;4893076;29;20247;-60
2023/12/20 08:51:15;;;;;;;2.17;1.63;;;;;;;;;;4893334;29;20224;-61
2023/12/20 08:53:44;;;;;;;1.37;1.33;;;;;;;;;;4892705;29;20591;-61
2023/12/20 08:56:13;;;;;;;1.33;1.20;;;;;;;;;;4893015;29;20223;-61
2023/12/20 08:58:40;;;;;;;3.07;1.30;;;;;;;;;;4892817;29;20213;-61
2023/12/20 09:01:07;;;;;;;2.40;1.60;;;;;;;;;;4892349;29;20205;-61
2023/12/20 09:03:34;;;;;;;3.70;1.70;;;;;;;;;;4892462;29;20296;-61
2023/12/20 09:06:01;;;;;;;5.93;1.93;;;;;;;;;;4892524;29;20220;-60
2023/12/20 09:08:28;;;;;;;6.60;2.67;;;;;;;;;;4892267;29;20676;-65
2023/12/20 09:10:56;;;;;;;4.60;2.50;;;;;;;;;;4893176;29;20205;-68
2023/12/20 09:13:27;;;;;;;2.07;1.50;;;;;;;;;;4892784;29;20209;-66
2023/12/20 09:15:54;;;;;;;2.37;2.17;;;;;;;;;;4893148;29;20209;-64
2023/12/20 09:18:21;;;;;;;2.33;2.10;;;;;;;;;;4893456;29;20631;-63
2023/12/20 09:20:49;;;;;;;3.37;2.47;;;;;;;;;;4892323;29;20249;-65
2023/12/20 09:23:16;;;;;;;2.90;2.70;;;;;;;;;;4892596;29;20220;-66
2023/12/20 09:25:44;;;;;;;3.03;1.70;;;;;;;;;;4876044;29;20604;-65
2023/12/20 09:28:11;;;;;;;3.13;1.57;;;;;;;;;;4889565;29;20252;-65
2023/12/20 09:30:39;;;;;;;3.13;1.77;;;;;;;;;;4893581;29;20351;-65
2023/12/20 09:33:07;;;;;;;5.57;2.00;;;;;;;;;;4880909;29;20218;-65
2023/12/20 09:35:35;;;;;;;2.43;1.93;;;;;;;;;;4889141;29;20213;-65
2023/12/20 09:38:02;;;;;;;3.20;1.73;;;;;;;;;;4886348;29;20228;-63
2023/12/20 09:40:29;;;;;;;4.43;1.67;;;;;;;;;;4889468;29;20236;-61
2023/12/20 09:42:58;;;;;;;3.67;2.13;;;;;;;;;;4892005;29;20213;-60
2023/12/20 09:45:25;;;;;;;2.40;1.50;;;;;;;;;;4891997;29;20209;-61
2023/12/20 09:47:54;;;;;;;1.80;1.67;;;;;;;;;;4878171;29;20288;-61
2023/12/20 09:50:21;;;;;;;2.00;1.70;;;;;;;;;;4873539;29;20741;-62
2023/12/20 09:52:51;;;;;;;4.33;1.90;;;;;;;;;;4882643;29;20308;-61
2023/12/20 09:55:18;;;;;;;5.57;2.70;;;;;;;;;;4891965;29;20293;-61
2023/12/20 09:57:46;;;;;;;4.30;2.67;;;;;;;;;;4891573;29;20296;-61
2023/12/20 10:00:13;;;;;;;6.33;2.57;;;;;;;;;;4891957;29;20706;-61
2023/12/20 10:02:42;;;;;;;3.67;2.30;;;;;;;;;;4891294;29;20208;-61
2023/12/20 10:05:16;;;;;;;4.63;3.17;;;;;;;;;;4892060;29;20213;-61
2023/12/20 10:07:43;;;;;;;2.67;2.33;;;;;;;;;;4891946;29;20204;-62
2023/12/20 10:10:12;;;;;;;4.83;2.07;;;;;;;;;;4891991;29;20303;-61
2023/12/20 10:12:39;;;;;;;3.33;1.50;;;;;;;;;;4891836;29;20251;-61
2023/12/20 10:15:07;;;;;;;4.03;3.00;;;;;;;;;;4891293;29;20213;-61
2023/12/20 10:17:34;;;;;;;3.87;2.13;;;;;;;;;;4892017;29;20224;-62
2023/12/20 10:20:01;;;;;;;2.23;1.83;;;;;;;;;;4888688;29;20225;-61
2023/12/20 10:22:29;;;;;;;2.90;1.90;;;;;;;;;;4888884;29;20742;-61
2023/12/20 10:24:58;;;;;;;5.13;1.70;;;;;;;;;;4891963;29;20232;-61
2023/12/20 10:27:25;;;;;;;3.00;1.90;;;;;;;;;;4891371;29;20206;-61
2023/12/20 10:29:53;;;;;;;3.33;1.57;;;;;;;;;;4891276;29;20236;-61
2023/12/20 10:32:24;;;;;;;4.07;2.33;;;;;;;;;;4890717;29;20213;-61
2023/12/20 10:34:51;;;;;;;3.37;2.10;;;;;;;;;;4887177;29;20263;-62
2023/12/20 10:37:18;;;;;;;3.33;1.83;;;;;;;;;;4872391;29;20577;-61
2023/12/20 10:39:50;;;;;;;7.30;1.40;;;;;;;;;;4882284;29;20234;-62
2023/12/20 10:42:17;;;;;;;2.03;1.20;;;;;;;;;;4878502;29;20208;-62
2023/12/20 10:44:44;;;;;;;2.57;1.97;;;;;;;;;;4891134;29;20217;-62
2023/12/20 10:47:13;;;;;;;2.53;1.47;;;;;;;;;;4889124;29;20209;-62
2023/12/20 10:49:40;;;;;;;4.97;2.50;;;;;;;;;;4891522;29;20731;-61
2023/12/20 10:52:08;;;;;;;2.43;1.50;;;;;;;;;;4890856;29;20272;-63
2023/12/20 10:54:35;;;;;;;2.10;1.63;;;;;;;;;;4891313;29;20217;-62
2023/12/20 10:57:06;;;;;;;3.87;1.67;;;;;;;;;;4891449;29;20225;-62
2023/12/20 10:59:34;;;;;;;2.00;1.00;;;;;;;;;;4890620;29;20209;-60
2023/12/20 11:02:05;;;;;;;2.60;1.10;;;;;;;;;;4883735;29;20588;-62
2023/12/20 11:04:35;;;;;;;5.40;1.13;;;;;;;;;;4886293;29;20219;-61
2023/12/20 11:07:07;;;;;;;1.90;1.20;;;;;;;;;;4889749;29;20201;-61
2023/12/20 11:09:38;;;;;;;4.60;1.47;;;;;;;;;;4888101;29;20216;-61
2023/12/20 11:12:11;;;;;;;4.37;1.90;;;;;;;;;;4890797;29;20232;-62
2023/12/20 11:14:42;;;;;;;3.57;1.20;;;;;;;;;;4882980;29;20201;-64
2023/12/20 11:17:11;;;;;;;2.40;1.47;;;;;;;;;;4872343;29;20221;-61
2023/12/20 11:19:38;;;;;;;4.07;1.83;;;;;;;;;;4885652;29;20237;-60
2023/12/20 11:22:07;;;;;;;2.10;1.10;;;;;;;;;;4890116;29;20243;-61
2023/12/20 11:24:37;;;;;;;3.73;1.93;;;;;;;;;;4889705;29;20228;-60
2023/12/20 11:27:05;;;;;;;2.53;1.87;;;;;;;;;;4890743;29;20382;-62
2023/12/20 11:29:34;;;;;;;2.37;2.23;;;;;;;;;;4890023;29;20956;-62
2023/12/20 11:32:02;;;;;;;2.93;1.90;;;;;;;;;;4889370;29;20672;-63
2023/12/20 11:34:33;;;;;;;4.47;1.63;;;;;;;;;;4888964;29;20535;-63
2023/12/20 11:37:00;;;;;;;4.90;1.20;;;;;;;;;;4876189;29;20210;-61
2023/12/20 11:39:28;;;;;;;1.87;1.20;;;;;;;;;;4886372;29;20211;-61
2023/12/20 11:41:57;;;;;;;2.47;1.10;;;;;;;;;;4889624;29;20235;-60
2023/12/20 11:44:24;;;;;;;3.87;1.50;;;;;;;;;;4881381;29;20216;-61
2023/12/20 11:46:53;;;;;;;2.13;1.83;;;;;;;;;;4871800;29;20218;-61
2023/12/20 11:49:24;;;;;;;6.20;2.37;;;;;;;;;;4888942;29;20699;-61
2023/12/20 11:51:51;;;;;;;2.53;1.77;;;;;;;;;;4890267;29;20944;-61
2023/12/20 11:54:18;;;;;;;5.57;2.30;;;;;;;;;;4891094;29;20272;-60
2023/12/20 11:56:45;;;;;;;7.77;3.10;;;;;;;;;;4889957;29;20504;-62
2023/12/20 11:59:12;;;;;;;3.70;3.03;;;;;;;;;;4889933;29;20215;-61
2023/12/20 12:01:39;;;;;;;6.00;2.50;;;;;;;;;;4890046;29;20462;-60
2023/12/20 12:04:08;;;;;;;8.33;2.50;;;;;;;;;;4891008;29;20302;-61
2023/12/20 12:06:35;;;;;;;1.70;1.40;;;;;;;;;;4890850;29;20229;-61
2023/12/20 12:09:03;;;;;;;3.60;1.43;;;;;;;;;;4885054;29;20206;-61
2023/12/20 12:11:31;;;;;;;6.17;1.33;;;;;;;;;;4880296;29;20275;-60
2023/12/20 12:13:58;;;;;;;1.90;1.23;;;;;;;;;;4885982;29;20350;-61
2023/12/20 12:16:25;;;;;;;3.30;1.30;;;;;;;;;;4881035;29;20213;-61
2023/12/20 12:18:58;;;;;;;3.93;1.90;;;;;;;;;;4881966;29;20798;-61
2023/12/20 12:21:27;;;;;;;1.27;1.23;;;;;;;;;;4882938;29;20263;-61
2023/12/20 12:23:54;;;;;;;2.03;1.43;;;;;;;;;;4886974;29;20214;-60
2023/12/20 12:26:21;;;;;;;2.63;1.13;;;;;;;;;;4880499;29;20205;-61
2023/12/20 12:28:48;;;;;;;1.93;0.90;;;;;;;;;;4880669;29;20669;-61
2023/12/20 12:31:16;;;;;;;3.77;1.60;;;;;;;;;;4881443;29;20213;-60
2023/12/20 12:33:44;;;;;;;5.20;1.30;;;;;;;;;;4883330;29;20645;-61
2023/12/20 12:36:11;;;;;;;3.33;1.47;;;;;;;;;;4884294;29;20632;-60
2023/12/20 12:38:40;;;;;;;5.40;2.33;;;;;;;;;;4879839;29;20214;-60
2023/12/20 12:41:07;;;;;;;2.40;1.30;;;;;;;;;;4880251;29;20323;-60
2023/12/20 12:43:34;;;;;;;1.30;1.20;;;;;;;;;;4879878;29;20296;-62
2023/12/20 12:46:01;;;;;;;2.43;1.50;;;;;;;;;;4881417;29;20264;-60
2023/12/20 12:48:29;;;;;;;3.13;1.60;;;;;;;;;;4882527;29;20214;-60
2023/12/20 12:50:58;;;;;;;3.23;2.00;;;;;;;;;;4887216;29;20491;-60
2023/12/20 12:53:26;;;;;;;2.50;1.43;;;;;;;;;;4891920;29;20214;-60
2023/12/20 12:55:55;;;;;;;7.27;1.43;;;;;;;;;;4893614;29;20217;-60
2023/12/20 12:58:22;;;;;;;2.80;1.40;;;;;;;;;;4892116;29;20776;-60
2023/12/20 13:00:49;;;;;;;4.67;1.67;;;;;;;;;;4893347;29;20237;-77
2023/12/20 13:03:16;;;;;;;2.80;1.50;;;;;;;;;;4891673;29;20225;-62
2023/12/20 13:05:44;;;;;;;3.00;1.57;;;;;;;;;;4888407;29;20610;-60
2023/12/20 13:08:12;;;;;;;2.13;1.40;;;;;;;;;;4893302;29;20223;-61
2023/12/20 13:10:39;;;;;;;2.57;1.47;;;;;;;;;;4891822;29;20845;-62
2023/12/20 13:13:07;;;;;;;1.80;1.70;;;;;;;;;;4892702;29;20209;-74
2023/12/20 13:15:34;;;;;;;3.27;2.07;;;;;;;;;;4890760;29;20309;-61
2023/12/20 13:18:02;;;;;;;3.70;1.37;;;;;;;;;;4887070;29;20241;-61
2023/12/20 13:20:29;;;;;;;1.33;0.90;;;;;;;;;;4892555;29;20604;-60
2023/12/20 13:22:56;;;;;;;1.80;1.70;;;;;;;;;;4881774;29;20214;-60
2023/12/20 13:25:23;;;;;;;2.97;1.40;;;;;;;;;;4889278;29;20285;-60
2023/12/20 13:27:50;;;;;;;2.87;1.43;;;;;;;;;;4892364;29;20229;-60
2023/12/20 13:30:19;;;;;;;3.17;1.37;;;;;;;;;;4889499;29;20576;-60
2023/12/20 13:32:46;;;;;;;4.70;1.50;;;;;;;;;;4885169;29;20261;-60
2023/12/20 13:35:13;;;;;;;1.40;1.30;;;;;;;;;;4888280;29;20440;-61
2023/12/20 13:37:40;;;;;;;7.80;1.50;;;;;;;;;;4889187;29;20205;-61
2023/12/20 13:40:08;;;;;;;3.30;1.57;;;;;;;;;;4878537;29;20293;-61
2023/12/20 13:42:35;;;;;;;3.83;1.60;;;;;;;;;;4882845;29;20562;-60
2023/12/20 13:45:04;;;;;;;3.23;1.30;;;;;;;;;;4880693;29;20216;-61
2023/12/20 13:47:33;;;;;;;4.00;1.10;;;;;;;;;;4891780;29;20213;-60
2023/12/20 13:50:00;;;;;;;2.40;1.77;;;;;;;;;;4892131;29;20676;-61
2023/12/20 13:52:27;;;;;;;2.27;1.13;;;;;;;;;;4888684;29;20209;-61
2023/12/20 13:54:54;;;;;;;2.37;1.23;;;;;;;;;;4888381;29;20224;-60
2023/12/20 13:57:21;;;;;;;2.73;1.17;;;;;;;;;;4892067;29;20221;-60
2023/12/20 13:59:48;;;;;;;3.13;1.10;;;;;;;;;;4888459;29;20228;-60
2023/12/20 14:02:16;;;;;;;0.80;0.80;;;;;;;;;;4889607;29;20284;-60
2023/12/20 14:04:44;;;;;;;0.60;0.60;;;;;;;;;;4885148;29;20210;-60
2023/12/20 14:07:11;;;;;;;4.23;1.30;;;;;;;;;;4890753;29;20248;-60
2023/12/20 14:09:38;;;;;;;1.37;1.03;;;;;;;;;;4888444;29;20236;-61
2023/12/20 14:12:06;;;;;;;1.80;1.20;;;;;;;;;;4891919;29;20866;-60
2023/12/20 14:14:33;;;;;;;2.40;1.40;;;;;;;;;;4886204;29;20238;-60
2023/12/20 14:17:00;;;;;;;2.63;1.10;;;;;;;;;;4889510;29;20251;-60
2023/12/20 14:19:27;;;;;;;1.50;1.40;;;;;;;;;;4890416;29;20794;-60
2023/12/20 14:21:56;;;;;;;3.20;1.37;;;;;;;;;;4891189;29;20237;-60
2023/12/20 14:24:23;;;;;;;1.23;1.10;;;;;;;;;;4879708;29;20214;-61
2023/12/20 14:26:50;;;;;;;1.60;1.00;;;;;;;;;;4890943;29;20229;-61
2023/12/20 14:29:17;;;;;;;2.27;1.43;;;;;;;;;;4891059;29;20221;-60
2023/12/20 14:31:44;;;;;;;3.33;1.50;;;;;;;;;;4890857;29;20637;-60
2023/12/20 14:34:11;;;;;;;2.73;1.17;;;;;;;;;;4890147;29;20213;-61
2023/12/20 14:36:38;;;;;;;2.63;0.70;;;;;;;;;;4872924;29;20306;-60
2023/12/20 14:39:08;;;;;;;3.70;0.90;;;;;;;;;;4885239;29;20217;-60
2023/12/20 14:41:35;;;;;;;1.17;0.77;;;;;;;;;;4872286;29;20234;-61
2023/12/20 14:44:04;;;;;;;1.23;1.00;;;;;;;;;;4881857;29;20213;-61
2023/12/20 14:46:31;;;;;;;3.53;1.40;;;;;;;;;;4890595;29;20380;-60
2023/12/20 14:48:58;;;;;;;2.80;1.10;;;;;;;;;;4891032;29;20228;-60